createdAt,value
2022-11-09T00:02:02.465Z,40.50
2022-11-09T00:04:31.479Z,41.70
2022-11-09T00:07:01.812Z,42.70
2022-11-09T00:09:30.805Z,40.23
2022-11-09T00:12:07.789Z,42.00
2022-11-09T00:14:43.980Z,40.93
2022-11-09T00:17:12.955Z,40.53
2022-11-09T00:19:48.052Z,38.33
2022-11-09T00:22:21.597Z,40.13
2022-11-09T00:24:57.926Z,39.10
2022-11-09T00:27:30.877Z,40.17
2022-11-09T00:30:23.930Z,39.57
2022-11-09T00:33:03.890Z,39.37
2022-11-09T00:35:42.760Z,40.00
2022-11-09T00:40:03.116Z,40.03
2022-11-09T00:40:56.485Z,39.42
2022-11-09T00:43:33.472Z,39.00
2022-11-09T00:46:08.987Z,39.10
2022-11-09T00:48:42.803Z,36.73
2022-11-09T00:51:16.141Z,40.37
2022-11-09T00:53:46.622Z,39.07
2022-11-09T00:56:18.394Z,39.20
2022-11-09T00:58:50.947Z,38.90
2022-11-09T01:01:26.710Z,38.70
2022-11-09T01:06:48.053Z,38.13
2022-11-09T01:09:22.084Z,39.67
2022-11-09T01:11:53.956Z,37.23
2022-11-09T01:14:44.855Z,39.40
2022-11-09T01:17:15.356Z,38.90
2022-11-09T01:19:46.630Z,39.33
2022-11-09T01:22:17.329Z,37.47
2022-11-09T01:24:56.516Z,37.33
2022-11-09T01:27:55.370Z,39.10
2022-11-09T01:30:24.271Z,39.00
2022-11-09T01:33:05.202Z,39.17
2022-11-09T01:38:40.405Z,37.15
2022-11-09T01:41:12.309Z,37.13
2022-11-09T01:43:41.133Z,39.00
2022-11-09T01:46:23.253Z,37.80
2022-11-09T01:49:08.236Z,36.65
2022-11-09T01:51:45.806Z,36.80
2022-11-09T01:57:16.866Z,36.15
2022-11-09T01:59:52.687Z,38.10
2022-11-09T02:02:25.473Z,39.20
2022-11-09T02:05:03.294Z,37.27
2022-11-09T02:07:35.675Z,37.43
2022-11-09T02:10:14.362Z,37.13
2022-11-09T02:12:46.180Z,37.48
2022-11-09T02:15:20.959Z,37.67
2022-11-09T02:17:54.444Z,37.03
2022-11-09T02:20:31.206Z,38.73
2022-11-09T02:23:03.306Z,37.30
2022-11-09T02:25:37.224Z,37.48
2022-11-09T02:28:10.170Z,35.60
2022-11-09T02:30:40.255Z,35.43
2022-11-09T02:33:18.224Z,34.77
2022-11-09T02:35:56.677Z,34.53
2022-11-09T02:38:31.736Z,32.03
2022-11-09T02:41:01.156Z,30.27
2022-11-09T02:43:33.298Z,31.23
2022-11-09T02:46:03.681Z,29.15
2022-11-09T02:48:35.216Z,29.47
2022-11-09T02:51:05.521Z,29.55
2022-11-09T02:53:35.416Z,29.67
2022-11-09T02:56:07.596Z,28.37
2022-11-09T02:59:06.295Z,27.95
2022-11-09T03:01:38.110Z,28.77
2022-11-09T03:04:15.787Z,28.70
2022-11-09T03:06:46.428Z,27.77
2022-11-09T03:09:16.983Z,28.00
2022-11-09T03:11:49.942Z,29.18
2022-11-09T03:14:22.079Z,28.73
2022-11-09T03:16:53.850Z,27.93
2022-11-09T03:19:25.736Z,28.62
2022-11-09T03:21:54.439Z,27.30
2022-11-09T03:24:26.389Z,28.62
2022-11-09T03:26:55.403Z,30.57
2022-11-09T03:29:27.424Z,29.10
2022-11-09T03:34:49.631Z,31.70
2022-11-09T03:37:27.786Z,32.20
2022-11-09T03:39:58.043Z,32.65
2022-11-09T03:42:32.980Z,31.13
2022-11-09T03:45:40.733Z,31.00
2022-11-09T03:48:28.987Z,31.40
2022-11-09T03:54:30.778Z,31.63
2022-11-09T03:57:53.836Z,31.57
2022-11-09T04:00:38.811Z,30.93
2022-11-09T04:06:18.153Z,29.77
2022-11-09T04:09:23.600Z,29.87
2022-11-09T04:19:14.638Z,28.73
2022-11-09T04:21:46.953Z,30.40
2022-11-09T04:27:35.851Z,28.77
2022-11-09T04:30:06.820Z,30.00
2022-11-09T04:32:50.555Z,31.20
2022-11-09T04:35:19.288Z,29.33
2022-11-09T04:38:05.913Z,28.87
2022-11-09T04:40:41.052Z,30.03
2022-11-09T04:43:14.323Z,30.40
2022-11-09T04:45:49.088Z,29.93
2022-11-09T04:48:17.823Z,30.20
2022-11-09T04:50:46.671Z,29.13
2022-11-09T04:53:16.845Z,30.10
2022-11-09T04:55:45.822Z,29.87
2022-11-09T04:58:14.807Z,28.90
2022-11-09T05:00:47.194Z,29.10
2022-11-09T05:03:16.268Z,28.10
2022-11-09T05:05:48.677Z,28.63
2022-11-09T05:08:17.828Z,28.40
2022-11-09T05:10:46.429Z,28.97
2022-11-09T05:13:18.441Z,28.60
2022-11-09T05:15:47.439Z,29.37
2022-11-09T05:18:16.070Z,29.47
2022-11-09T05:20:44.653Z,29.07
2022-11-09T05:23:31.145Z,30.40
2022-11-09T05:26:01.689Z,29.53
2022-11-09T05:28:33.491Z,26.70
2022-11-09T05:31:02.337Z,27.73
2022-11-09T05:33:31.042Z,30.43
2022-11-09T05:35:59.846Z,32.10
2022-11-09T05:38:28.512Z,29.87
2022-11-09T05:40:58.788Z,30.63
2022-11-09T05:43:35.757Z,30.93
2022-11-09T05:46:09.078Z,28.93
2022-11-09T05:48:37.890Z,28.93
2022-11-09T05:51:08.252Z,30.37
2022-11-09T05:53:43.558Z,30.43
2022-11-09T05:56:11.851Z,30.67
2022-11-09T05:58:52.293Z,30.20
2022-11-09T06:01:25.088Z,30.30
2022-11-09T06:03:58.881Z,29.80
2022-11-09T06:06:29.531Z,29.03
2022-11-09T06:09:01.613Z,28.73
2022-11-09T06:11:30.697Z,31.23
2022-11-09T06:13:59.633Z,30.43
2022-11-09T06:16:31.608Z,30.40
2022-11-09T06:19:02.015Z,28.13
2022-11-09T06:21:35.038Z,29.87
2022-11-09T06:24:06.973Z,30.13
2022-11-09T06:26:35.774Z,29.70
2022-11-09T06:29:05.887Z,30.03
2022-11-09T06:31:34.580Z,28.90
2022-11-09T06:34:05.112Z,28.27
2022-11-09T06:36:37.308Z,30.27
2022-11-09T06:39:13.041Z,28.98
2022-11-09T06:41:46.216Z,30.37
2022-11-09T06:44:14.235Z,30.92
2022-11-09T06:46:47.491Z,30.32
2022-11-09T06:49:35.971Z,30.62
2022-11-09T06:52:10.682Z,30.20
2022-11-09T06:54:45.375Z,29.07
2022-11-09T06:57:23.172Z,29.30
2022-11-09T07:00:23.078Z,31.23
2022-11-09T07:03:03.515Z,31.57
2022-11-09T07:05:32.789Z,31.15
2022-11-09T07:08:01.603Z,32.08
2022-11-09T07:10:41.550Z,35.30
2022-11-09T07:13:10.874Z,32.67
2022-11-09T07:15:50.925Z,31.80
2022-11-09T07:18:24.767Z,32.35
2022-11-09T07:20:53.693Z,32.03
2022-11-09T07:23:23.893Z,69.20
2022-11-09T07:25:56.782Z,52.20
2022-11-09T07:28:26.931Z,35.55
2022-11-09T07:30:55.662Z,33.10
2022-11-09T07:33:25.739Z,33.53
2022-11-09T07:35:59.300Z,31.80
2022-11-09T07:38:30.159Z,30.72
2022-11-09T07:41:04.611Z,33.23
2022-11-09T07:43:34.473Z,31.68
2022-11-09T07:46:10.074Z,32.10
2022-11-09T07:48:42.611Z,49.20
2022-11-09T07:51:14.175Z,32.28
2022-11-09T07:53:43.054Z,33.15
2022-11-09T07:56:11.809Z,32.65
2022-11-09T07:58:44.341Z,31.75
2022-11-09T08:01:16.251Z,32.90
2022-11-09T08:03:45.016Z,34.13
2022-11-09T08:06:18.225Z,33.33
2022-11-09T08:08:46.571Z,34.03
2022-11-09T08:11:25.679Z,35.68
2022-11-09T08:14:02.392Z,33.90
2022-11-09T08:16:37.746Z,34.80
2022-11-09T08:19:14.384Z,37.88
2022-11-09T08:21:47.998Z,34.78
2022-11-09T08:24:20.054Z,34.13
2022-11-09T08:26:52.430Z,34.90
2022-11-09T08:29:25.909Z,33.85
2022-11-09T08:31:56.376Z,36.08
2022-11-09T08:34:25.291Z,34.85
2022-11-09T08:36:55.389Z,37.40
2022-11-09T08:39:27.359Z,37.60
2022-11-09T08:42:02.343Z,37.85
2022-11-09T08:44:33.871Z,38.20
2022-11-09T08:47:17.108Z,38.67
2022-11-09T08:49:56.194Z,39.50
2022-11-09T08:52:25.370Z,36.85
2022-11-09T08:54:56.060Z,58.15
2022-11-09T08:57:28.043Z,38.70
2022-11-09T09:00:17.447Z,36.98
2022-11-09T09:02:46.641Z,38.05
2022-11-09T09:05:15.897Z,36.95
2022-11-09T09:07:47.565Z,36.03
2022-11-09T09:10:16.229Z,39.13
2022-11-09T09:12:46.288Z,37.30
2022-11-09T09:15:17.705Z,38.00
2022-11-09T09:17:47.932Z,36.93
2022-11-09T09:20:18.904Z,36.95
2022-11-09T09:22:52.689Z,38.60
2022-11-09T09:25:21.489Z,37.40
2022-11-09T09:27:52.079Z,40.80
2022-11-09T09:30:25.453Z,40.08
2022-11-09T09:32:56.071Z,39.15
2022-11-09T09:35:32.037Z,38.48
2022-11-09T09:38:01.089Z,36.95
2022-11-09T09:40:38.786Z,37.23
2022-11-09T09:43:26.298Z,37.98
2022-11-09T09:45:56.711Z,37.95
2022-11-09T09:48:54.198Z,38.08
2022-11-09T09:51:35.081Z,35.45
2022-11-09T09:54:06.728Z,40.38
2022-11-09T09:56:37.874Z,35.48
2022-11-09T09:59:30.548Z,38.95
2022-11-09T10:02:00.709Z,37.42
2022-11-09T10:04:41.155Z,35.28
2022-11-09T10:07:18.502Z,35.68
2022-11-09T10:10:30.088Z,31.55
2022-11-09T10:13:09.644Z,28.83
2022-11-09T10:16:21.634Z,30.88
2022-11-09T10:18:55.385Z,29.98
2022-11-09T10:21:46.534Z,31.10
2022-11-09T10:24:27.957Z,29.55
2022-11-09T10:27:06.201Z,31.87
2022-11-09T10:29:55.076Z,30.65
2022-11-09T10:32:31.370Z,30.25
2022-11-09T10:35:44.529Z,29.12
2022-11-09T10:38:19.704Z,31.15
2022-11-09T10:40:58.386Z,28.30
2022-11-09T10:43:27.122Z,26.30
2022-11-09T10:46:09.332Z,27.25
2022-11-09T10:48:40.558Z,27.15
2022-11-09T10:51:28.481Z,25.02
2022-11-09T10:54:18.016Z,25.85
2022-11-09T10:57:06.732Z,28.50
2022-11-09T10:59:44.550Z,26.52
2022-11-09T11:02:33.900Z,24.52
2022-11-09T11:05:12.833Z,24.50
2022-11-09T11:07:43.139Z,24.35
2022-11-09T11:10:21.231Z,25.27
2022-11-09T11:13:04.990Z,24.18
2022-11-09T11:15:45.610Z,23.07
2022-11-09T11:18:30.085Z,21.05
2022-11-09T11:21:19.836Z,21.95
2022-11-09T11:24:09.873Z,21.07
2022-11-09T11:26:59.626Z,20.48
2022-11-09T11:29:49.248Z,20.90
2022-11-09T11:32:21.019Z,22.17
2022-11-09T11:35:00.250Z,20.97
2022-11-09T11:37:35.845Z,22.65
2022-11-09T11:40:12.455Z,27.05
2022-11-09T11:45:45.471Z,32.85
2022-11-09T11:48:44.548Z,33.58
2022-11-09T11:51:28.212Z,28.47
2022-11-09T11:54:01.682Z,30.02
2022-11-09T11:57:00.339Z,29.27
2022-11-09T11:59:54.537Z,27.70
2022-11-09T12:06:27.370Z,24.57
2022-11-09T12:09:43.908Z,24.82
2022-11-09T12:25:49.654Z,25.85
2022-11-09T12:28:48.176Z,29.15
2022-11-09T12:31:39.117Z,26.95
2022-11-09T12:38:18.179Z,27.65
2022-11-09T12:41:00.915Z,27.85
2022-11-09T12:47:14.782Z,27.65
2022-11-09T12:56:28.192Z,27.73
2022-11-09T12:59:32.254Z,28.32
2022-11-09T13:05:33.716Z,26.10
2022-11-09T13:11:01.762Z,33.92
2022-11-09T13:13:31.883Z,28.35
2022-11-09T13:16:49.835Z,27.55
2022-11-09T13:29:32.132Z,26.68
2022-11-09T13:36:00.278Z,31.33
2022-11-09T13:39:03.396Z,27.85
2022-11-09T13:42:04.442Z,27.48
2022-11-09T13:50:49.213Z,27.82
2022-11-09T14:00:27.888Z,26.37
2022-11-09T14:16:39.423Z,27.00
2022-11-09T14:31:54.013Z,33.10
2022-11-09T14:34:42.980Z,36.58
2022-11-09T14:37:20.791Z,28.83
2022-11-09T14:39:54.536Z,27.82
2022-11-09T14:48:20.680Z,27.52
2022-11-09T14:51:10.673Z,27.75
2022-11-09T14:53:44.837Z,30.60
2022-11-09T14:56:23.573Z,28.80
2022-11-09T14:58:58.613Z,30.12
2022-11-09T15:01:28.530Z,29.18
2022-11-09T15:04:21.965Z,28.40
2022-11-09T15:07:02.636Z,26.05
2022-11-09T15:09:40.113Z,26.17
2022-11-09T15:27:12.601Z,29.85
2022-11-09T15:30:47.184Z,30.82
2022-11-09T15:46:09.028Z,32.42
2022-11-09T15:48:41.002Z,36.25
2022-11-09T15:51:10.635Z,33.73
2022-11-09T15:53:40.138Z,36.50
2022-11-09T15:56:29.691Z,36.70
2022-11-09T15:59:04.086Z,36.17
2022-11-09T16:07:57.525Z,37.05
2022-11-09T16:10:39.533Z,36.03
2022-11-09T16:13:06.251Z,34.88
2022-11-09T16:15:41.188Z,36.80
2022-11-09T16:18:14.854Z,35.88
2022-11-09T16:20:49.235Z,36.98
2022-11-09T16:23:22.995Z,37.93
2022-11-09T16:25:54.629Z,38.33
2022-11-09T16:28:30.005Z,42.35
2022-11-09T16:30:58.997Z,38.78
2022-11-09T16:33:42.931Z,38.90
2022-11-09T16:36:18.268Z,38.83
2022-11-09T16:38:59.519Z,41.95
2022-11-09T16:41:34.841Z,39.73
2022-11-09T16:44:13.449Z,39.73
2022-11-09T16:46:44.704Z,39.83
2022-11-09T16:49:13.757Z,40.23
2022-11-09T16:51:45.989Z,43.87
2022-11-09T16:54:17.808Z,45.50
2022-11-09T16:56:48.243Z,55.92
2022-11-09T16:59:20.413Z,61.18
2022-11-09T17:01:57.985Z,56.92
2022-11-09T17:04:39.018Z,51.37
2022-11-09T17:07:05.429Z,51.63
2022-11-09T17:09:36.858Z,53.67
2022-11-09T17:12:07.843Z,49.45
2022-11-09T17:14:36.746Z,44.03
2022-11-09T17:17:08.531Z,44.05
2022-11-09T17:19:49.947Z,43.35
2022-11-09T17:22:20.465Z,42.48
2022-11-09T17:24:49.141Z,41.00
2022-11-09T17:27:20.435Z,41.98
2022-11-09T17:29:59.489Z,41.98
2022-11-09T17:32:28.406Z,41.63
2022-11-09T17:34:57.109Z,40.67
2022-11-09T17:37:26.451Z,39.80
2022-11-09T17:39:56.806Z,40.73
2022-11-09T17:42:29.021Z,42.23
2022-11-09T17:45:17.392Z,42.33
2022-11-09T17:50:35.089Z,42.58
2022-11-09T17:53:37.016Z,48.42
2022-11-09T17:56:11.865Z,48.35
2022-11-09T17:58:44.758Z,43.27
2022-11-09T18:01:25.253Z,43.70
2022-11-09T18:03:57.405Z,42.55
2022-11-09T18:06:43.226Z,43.05
2022-11-09T18:12:13.694Z,43.78
2022-11-09T18:14:45.830Z,41.70
2022-11-09T18:17:17.624Z,41.50
2022-11-09T18:19:52.309Z,42.63
2022-11-09T18:22:24.376Z,39.98
2022-11-09T18:25:01.807Z,40.75
2022-11-09T18:27:33.700Z,43.02
2022-11-09T18:30:03.977Z,42.43
2022-11-09T18:32:40.216Z,43.10
2022-11-09T18:35:17.171Z,41.85
2022-11-09T18:37:50.083Z,44.53
2022-11-09T18:40:25.420Z,45.08
2022-11-09T18:43:03.037Z,44.67
2022-11-09T18:45:39.744Z,44.30
2022-11-09T18:48:21.569Z,44.10
2022-11-09T18:51:13.926Z,43.37
2022-11-09T18:53:50.193Z,42.27
2022-11-09T18:56:35.897Z,44.07
2022-11-09T18:59:18.338Z,43.67
2022-11-09T19:02:00.343Z,44.50
2022-11-09T19:04:53.739Z,43.93
2022-11-09T19:07:53.231Z,44.57
2022-11-09T19:10:11.280Z,44.20
2022-11-09T19:12:58.854Z,42.20
2022-11-09T19:15:21.836Z,43.87
2022-11-09T19:17:58.142Z,43.17
2022-11-09T19:20:35.831Z,42.50
2022-11-09T19:23:13.267Z,43.43
2022-11-09T19:25:46.001Z,42.20
2022-11-09T19:28:21.142Z,41.13
2022-11-09T19:33:53.100Z,39.87
2022-11-09T19:36:31.528Z,41.27
2022-11-09T19:39:04.093Z,47.67
2022-11-09T19:41:34.403Z,41.03
2022-11-09T19:44:06.710Z,40.67
2022-11-09T19:46:39.502Z,40.33
2022-11-09T19:49:23.430Z,41.00
2022-11-09T19:52:00.543Z,41.53
2022-11-09T19:54:35.267Z,38.93
2022-11-09T19:57:18.947Z,41.83
2022-11-09T20:02:31.206Z,39.43
2022-11-09T20:05:00.290Z,38.80
2022-11-09T20:07:31.148Z,38.63
2022-11-09T20:10:06.652Z,39.00
2022-11-09T20:13:00.031Z,39.47
2022-11-09T20:15:33.657Z,39.90
2022-11-09T20:18:06.846Z,40.17
2022-11-09T20:24:02.077Z,39.70
2022-11-09T20:26:35.615Z,40.53
2022-11-09T20:31:47.684Z,39.03
2022-11-09T20:34:25.067Z,61.63
2022-11-09T20:36:55.421Z,44.97
2022-11-09T20:39:36.980Z,41.00
2022-11-09T20:42:09.432Z,38.93
2022-11-09T20:47:57.352Z,36.27
2022-11-09T20:50:10.902Z,38.87
2022-11-09T20:52:44.360Z,37.00
2022-11-09T20:55:14.834Z,37.27
2022-11-09T20:57:48.281Z,37.23
2022-11-09T21:00:25.176Z,37.67
2022-11-09T21:03:23.987Z,37.67
2022-11-09T21:06:08.787Z,38.00
2022-11-09T21:08:38.046Z,38.77
2022-11-09T21:11:10.113Z,38.10
2022-11-09T21:13:43.055Z,39.17
2022-11-09T21:16:14.913Z,39.43
2022-11-09T21:21:40.531Z,38.33
2022-11-09T21:24:36.745Z,38.97
2022-11-09T21:27:48.991Z,37.53
2022-11-09T21:30:23.203Z,39.13
2022-11-09T21:35:59.633Z,39.67
2022-11-09T21:38:30.378Z,39.67
2022-11-09T21:41:08.521Z,40.53
2022-11-09T21:43:40.891Z,41.90
2022-11-09T21:46:13.624Z,41.77
2022-11-09T21:48:49.789Z,39.13
2022-11-09T21:51:27.698Z,40.87
2022-11-09T21:53:58.172Z,39.43
2022-11-09T21:56:35.626Z,39.73
2022-11-09T21:59:08.186Z,41.40
2022-11-09T22:01:37.409Z,42.13
2022-11-09T22:04:17.910Z,40.20
2022-11-09T22:07:07.009Z,40.37
2022-11-09T22:09:32.468Z,40.60
2022-11-09T22:12:16.587Z,41.50
2022-11-09T22:15:06.140Z,42.03
2022-11-09T22:17:38.711Z,40.47
2022-11-09T22:20:32.458Z,43.03
2022-11-09T22:23:03.055Z,40.90
2022-11-09T22:25:33.474Z,43.13
2022-11-09T22:28:02.244Z,42.67
2022-11-09T22:30:35.763Z,45.53
2022-11-09T22:33:08.283Z,43.87
2022-11-09T22:35:43.443Z,44.10
2022-11-09T22:38:12.099Z,45.73
2022-11-09T22:40:42.599Z,47.27
2022-11-09T22:43:27.813Z,43.43
2022-11-09T22:46:00.859Z,45.67
2022-11-09T22:48:48.840Z,48.07
2022-11-09T22:51:22.501Z,48.20
2022-11-09T22:53:52.010Z,48.70
2022-11-09T22:56:23.926Z,46.73
2022-11-09T22:59:10.980Z,43.83
2022-11-09T23:01:33.790Z,48.87
2022-11-09T23:04:02.574Z,47.67
2022-11-09T23:06:33.774Z,48.13
2022-11-09T23:11:56.839Z,50.03
2022-11-09T23:14:43.744Z,51.57
2022-11-09T23:17:15.507Z,51.77
2022-11-09T23:19:53.251Z,50.57
2022-11-09T23:22:22.190Z,50.17
2022-11-09T23:25:11.936Z,52.60
2022-11-09T23:27:40.862Z,52.43
2022-11-09T23:30:09.785Z,54.13
2022-11-09T23:32:38.430Z,52.60
2022-11-09T23:35:07.727Z,51.87
2022-11-09T23:37:36.430Z,54.40
2022-11-09T23:40:09.818Z,52.73
2022-11-09T23:42:41.889Z,53.10
2022-11-09T23:45:11.160Z,51.70
2022-11-09T23:47:42.576Z,54.00
2022-11-09T23:50:14.021Z,52.90
2022-11-09T23:52:44.140Z,52.13
2022-11-09T23:55:12.981Z,55.47
2022-11-09T23:57:44.797Z,54.47
